Pays
Station

 

Conditions  météo  pour  Pakanbaru/Simpangtiga  -  Indonésie    Indonésie

  
27 °C
    
 
 

METAR pour Pakanbaru/Simpangtiga :

WIBB 191730Z 00000KT 8000 FEW013 27/25 Q1010

 

Voici le bulletin pour Pakanbaru/Simpangtiga - Indonésie.
 
Le bulletin a été fait il y a 14 heures et 43 minutes, à 17:30 UTC .
Le vent était calme.
 
La température était de 27 °C, avec un point de rosée à 25 °C.
La température ressentie était de 31 °C.
 
La pression atmosphérique était de 1010 hPa.
L'humidité relative était de 88.8%.
 
Il y avait 1 à 2/8ème de nébulosité à une hauteur de 396 mètres.
 
La visibilité globale était de 8.0 kilomètres.
 

 
 
 

Pays :   A   B   C   D   E   F   G   H   I   J   K   L   M   N   O   P   Q   R   S   T   U   V   W   Y   Z

 

Partenaires :  Info Météo avec Met'info
Météo Marine avec MeteoMarine.net
Infos Site  |  Infos Légales  |  Crédits  |  Confidentialité
Contactez-nous  |  Ajouter aux favoris
© 2013-2020 METAR - Tous droits réservés